sensor_id;sensor_type;location;lat;lon;timestamp;temperature;humidity
22161;DHT22;49035;48.812;11.762;2022-11-22T00:02:19;0.10;99.90
22161;DHT22;49035;48.812;11.762;2022-11-22T00:04:45;0.00;99.90
22161;DHT22;49035;48.812;11.762;2022-11-22T00:07:10;-0.20;99.90
22161;DHT22;49035;48.812;11.762;2022-11-22T00:09:36;-0.30;99.90
22161;DHT22;49035;48.812;11.762;2022-11-22T00:12:01;-0.30;99.90
22161;DHT22;49035;48.812;11.762;2022-11-22T00:14:27;0.00;99.90
22161;DHT22;49035;48.812;11.762;2022-11-22T00:16:53;-0.10;99.90
22161;DHT22;49035;48.812;11.762;2022-11-22T00:19:19;-0.10;99.90
22161;DHT22;49035;48.812;11.762;2022-11-22T00:21:44;-0.10;99.90
22161;DHT22;49035;48.812;11.762;2022-11-22T00:24:13;-0.20;99.90
22161;DHT22;49035;48.812;11.762;2022-11-22T00:26:39;-0.10;99.90
22161;DHT22;49035;48.812;11.762;2022-11-22T00:29:04;-0.10;99.90
22161;DHT22;49035;48.812;11.762;2022-11-22T00:31:31;-0.10;99.90
22161;DHT22;49035;48.812;11.762;2022-11-22T00:33:57;-0.10;99.90
22161;DHT22;49035;48.812;11.762;2022-11-22T00:36:22;-0.10;99.90
22161;DHT22;49035;48.812;11.762;2022-11-22T00:38:48;-0.10;99.90
22161;DHT22;49035;48.812;11.762;2022-11-22T00:41:14;0.00;99.90
22161;DHT22;49035;48.812;11.762;2022-11-22T00:43:40;0.10;99.90
22161;DHT22;49035;48.812;11.762;2022-11-22T00:46:05;0.10;99.90
22161;DHT22;49035;48.812;11.762;2022-11-22T00:48:31;0.10;99.90
22161;DHT22;49035;48.812;11.762;2022-11-22T00:50:57;0.00;99.90
22161;DHT22;49035;48.812;11.762;2022-11-22T00:53:23;0.20;99.90
22161;DHT22;49035;48.812;11.762;2022-11-22T00:55:49;0.30;99.90
22161;DHT22;49035;48.812;11.762;2022-11-22T00:58:15;0.30;99.90
22161;DHT22;49035;48.812;11.762;2022-11-22T01:00:41;0.40;99.90
22161;DHT22;49035;48.812;11.762;2022-11-22T01:03:10;0.30;99.90
22161;DHT22;49035;48.812;11.762;2022-11-22T01:05:35;0.40;99.90
22161;DHT22;49035;48.812;11.762;2022-11-22T01:08:01;0.40;99.90
22161;DHT22;49035;48.812;11.762;2022-11-22T01:10:26;0.40;99.90
22161;DHT22;49035;48.812;11.762;2022-11-22T01:12:52;0.50;99.90
22161;DHT22;49035;48.812;11.762;2022-11-22T01:15:18;0.50;99.90
22161;DHT22;49035;48.812;11.762;2022-11-22T01:17:43;0.70;99.90
22161;DHT22;49035;48.812;11.762;2022-11-22T01:20:09;0.80;99.90
22161;DHT22;49035;48.812;11.762;2022-11-22T01:22:35;0.60;99.90
22161;DHT22;49035;48.812;11.762;2022-11-22T01:25:00;0.50;99.90
22161;DHT22;49035;48.812;11.762;2022-11-22T01:27:26;0.50;99.90
22161;DHT22;49035;48.812;11.762;2022-11-22T01:29:51;0.80;99.90
22161;DHT22;49035;48.812;11.762;2022-11-22T01:32:17;0.70;99.90
22161;DHT22;49035;48.812;11.762;2022-11-22T01:34:43;0.80;99.90
22161;DHT22;49035;48.812;11.762;2022-11-22T01:37:08;0.70;99.90
22161;DHT22;49035;48.812;11.762;2022-11-22T01:39:34;0.50;99.90
22161;DHT22;49035;48.812;11.762;2022-11-22T01:41:59;0.60;99.90
22161;DHT22;49035;48.812;11.762;2022-11-22T01:44:30;0.70;99.90
22161;DHT22;49035;48.812;11.762;2022-11-22T01:46:59;0.50;99.90
22161;DHT22;49035;48.812;11.762;2022-11-22T01:49:55;0.50;99.90
22161;DHT22;49035;48.812;11.762;2022-11-22T01:52:25;0.40;99.90
22161;DHT22;49035;48.812;11.762;2022-11-22T01:54:56;0.40;99.90
22161;DHT22;49035;48.812;11.762;2022-11-22T01:57:27;0.30;99.90
22161;DHT22;49035;48.812;11.762;2022-11-22T01:59:58;0.40;99.90
22161;DHT22;49035;48.812;11.762;2022-11-22T02:02:25;0.40;99.90
22161;DHT22;49035;48.812;11.762;2022-11-22T02:04:52;0.40;99.90
22161;DHT22;49035;48.812;11.762;2022-11-22T02:07:25;0.50;99.90
22161;DHT22;49035;48.812;11.762;2022-11-22T02:09:52;0.50;99.90
22161;DHT22;49035;48.812;11.762;2022-11-22T02:12:21;0.60;99.90
22161;DHT22;49035;48.812;11.762;2022-11-22T02:14:48;0.50;99.90
22161;DHT22;49035;48.812;11.762;2022-11-22T02:17:14;0.60;99.90
22161;DHT22;49035;48.812;11.762;2022-11-22T02:19:46;0.70;99.90
22161;DHT22;49035;48.812;11.762;2022-11-22T02:25:02;0.80;99.90
22161;DHT22;49035;48.812;11.762;2022-11-22T02:27:31;1.00;99.90
22161;DHT22;49035;48.812;11.762;2022-11-22T02:29:56;1.00;99.90
22161;DHT22;49035;48.812;11.762;2022-11-22T02:32:22;1.00;99.90
22161;DHT22;49035;48.812;11.762;2022-11-22T02:34:49;1.10;99.90
22161;DHT22;49035;48.812;11.762;2022-11-22T02:37:20;1.10;99.90
22161;DHT22;49035;48.812;11.762;2022-11-22T02:39:47;1.20;99.90
22161;DHT22;49035;48.812;11.762;2022-11-22T02:42:15;1.30;99.90
22161;DHT22;49035;48.812;11.762;2022-11-22T02:44:41;1.40;99.90
22161;DHT22;49035;48.812;11.762;2022-11-22T02:47:07;1.40;99.90
22161;DHT22;49035;48.812;11.762;2022-11-22T02:49:32;1.40;99.90
22161;DHT22;49035;48.812;11.762;2022-11-22T02:51:58;1.40;99.90
22161;DHT22;49035;48.812;11.762;2022-11-22T02:54:24;1.50;99.90
22161;DHT22;49035;48.812;11.762;2022-11-22T02:56:49;1.50;99.90
22161;DHT22;49035;48.812;11.762;2022-11-22T02:59:15;1.50;99.90
22161;DHT22;49035;48.812;11.762;2022-11-22T03:01:41;1.40;99.90
22161;DHT22;49035;48.812;11.762;2022-11-22T03:04:07;1.40;99.90
22161;DHT22;49035;48.812;11.762;2022-11-22T03:06:32;1.50;99.90
22161;DHT22;49035;48.812;11.762;2022-11-22T03:08:58;1.50;99.90
22161;DHT22;49035;48.812;11.762;2022-11-22T03:11:24;1.60;99.90
22161;DHT22;49035;48.812;11.762;2022-11-22T03:13:50;1.50;99.90
22161;DHT22;49035;48.812;11.762;2022-11-22T03:16:15;1.50;99.90
22161;DHT22;49035;48.812;11.762;2022-11-22T03:18:41;1.60;99.90
22161;DHT22;49035;48.812;11.762;2022-11-22T03:21:08;1.70;99.90
22161;DHT22;49035;48.812;11.762;2022-11-22T03:23:34;1.70;99.90
22161;DHT22;49035;48.812;11.762;2022-11-22T03:26:07;1.70;99.90
22161;DHT22;49035;48.812;11.762;2022-11-22T03:28:33;1.70;99.90
22161;DHT22;49035;48.812;11.762;2022-11-22T03:30:59;1.60;99.90
22161;DHT22;49035;48.812;11.762;2022-11-22T03:33:24;1.60;99.90
22161;DHT22;49035;48.812;11.762;2022-11-22T03:35:55;1.60;99.90
22161;DHT22;49035;48.812;11.762;2022-11-22T03:38:20;1.70;99.90
22161;DHT22;49035;48.812;11.762;2022-11-22T03:40:46;1.80;99.90
22161;DHT22;49035;48.812;11.762;2022-11-22T03:43:12;1.80;99.90
22161;DHT22;49035;48.812;11.762;2022-11-22T03:45:43;1.80;99.90
22161;DHT22;49035;48.812;11.762;2022-11-22T03:48:09;1.80;99.90
22161;DHT22;49035;48.812;11.762;2022-11-22T03:50:35;1.80;99.90
22161;DHT22;49035;48.812;11.762;2022-11-22T03:53:00;1.80;99.90
22161;DHT22;49035;48.812;11.762;2022-11-22T03:55:26;1.80;99.90
22161;DHT22;49035;48.812;11.762;2022-11-22T03:57:51;1.90;99.90
22161;DHT22;49035;48.812;11.762;2022-11-22T04:00:17;1.90;99.90
22161;DHT22;49035;48.812;11.762;2022-11-22T04:02:43;1.90;99.90
22161;DHT22;49035;48.812;11.762;2022-11-22T04:05:08;2.00;99.90
22161;DHT22;49035;48.812;11.762;2022-11-22T04:07:34;2.00;99.90
22161;DHT22;49035;48.812;11.762;2022-11-22T04:10:00;2.10;99.90
22161;DHT22;49035;48.812;11.762;2022-11-22T04:12:27;2.00;99.90
22161;DHT22;49035;48.812;11.762;2022-11-22T04:14:52;2.00;99.90
22161;DHT22;49035;48.812;11.762;2022-11-22T04:17:38;1.90;99.90
22161;DHT22;49035;48.812;11.762;2022-11-22T04:20:14;1.90;99.90
22161;DHT22;49035;48.812;11.762;2022-11-22T04:23:04;1.90;99.90
22161;DHT22;49035;48.812;11.762;2022-11-22T04:25:31;1.90;99.90
22161;DHT22;49035;48.812;11.762;2022-11-22T04:27:58;2.10;99.90
22161;DHT22;49035;48.812;11.762;2022-11-22T04:30:25;2.20;99.90
22161;DHT22;49035;48.812;11.762;2022-11-22T04:33:11;2.10;99.90
22161;DHT22;49035;48.812;11.762;2022-11-22T04:35:37;2.00;99.90
22161;DHT22;49035;48.812;11.762;2022-11-22T04:38:04;2.00;99.90
22161;DHT22;49035;48.812;11.762;2022-11-22T04:40:30;1.90;99.90
22161;DHT22;49035;48.812;11.762;2022-11-22T04:42:56;1.90;99.90
22161;DHT22;49035;48.812;11.762;2022-11-22T04:45:40;1.90;99.90
22161;DHT22;49035;48.812;11.762;2022-11-22T04:48:06;1.90;99.90
22161;DHT22;49035;48.812;11.762;2022-11-22T04:50:31;1.90;99.90
22161;DHT22;49035;48.812;11.762;2022-11-22T04:53:18;1.90;99.90
22161;DHT22;49035;48.812;11.762;2022-11-22T04:55:45;2.00;99.90
22161;DHT22;49035;48.812;11.762;2022-11-22T04:58:12;2.10;99.90
22161;DHT22;49035;48.812;11.762;2022-11-22T05:00:38;2.10;99.90
22161;DHT22;49035;48.812;11.762;2022-11-22T05:03:04;2.10;99.90
22161;DHT22;49035;48.812;11.762;2022-11-22T05:05:33;2.10;99.90
22161;DHT22;49035;48.812;11.762;2022-11-22T05:07:59;1.90;99.90
22161;DHT22;49035;48.812;11.762;2022-11-22T05:10:24;1.90;99.90
22161;DHT22;49035;48.812;11.762;2022-11-22T05:12:50;1.80;99.90
22161;DHT22;49035;48.812;11.762;2022-11-22T05:15:16;1.90;99.90
22161;DHT22;49035;48.812;11.762;2022-11-22T05:17:41;2.00;99.90
22161;DHT22;49035;48.812;11.762;2022-11-22T05:20:07;2.10;99.90
22161;DHT22;49035;48.812;11.762;2022-11-22T05:22:34;1.90;99.90
22161;DHT22;49035;48.812;11.762;2022-11-22T05:25:18;1.80;99.90
22161;DHT22;49035;48.812;11.762;2022-11-22T05:27:43;1.70;99.90
22161;DHT22;49035;48.812;11.762;2022-11-22T05:30:09;1.70;99.90
22161;DHT22;49035;48.812;11.762;2022-11-22T05:32:35;1.70;99.90
22161;DHT22;49035;48.812;11.762;2022-11-22T05:35:01;1.90;99.90
22161;DHT22;49035;48.812;11.762;2022-11-22T05:37:26;1.90;99.90
22161;DHT22;49035;48.812;11.762;2022-11-22T05:39:52;2.10;99.90
22161;DHT22;49035;48.812;11.762;2022-11-22T05:42:18;2.10;99.90
22161;DHT22;49035;48.812;11.762;2022-11-22T05:44:44;2.10;99.90
22161;DHT22;49035;48.812;11.762;2022-11-22T05:47:09;2.00;99.90
22161;DHT22;49035;48.812;11.762;2022-11-22T05:49:35;1.90;99.90
22161;DHT22;49035;48.812;11.762;2022-11-22T05:52:02;1.80;99.90
22161;DHT22;49035;48.812;11.762;2022-11-22T05:54:28;1.80;99.90
22161;DHT22;49035;48.812;11.762;2022-11-22T05:56:54;1.80;99.90
22161;DHT22;49035;48.812;11.762;2022-11-22T05:59:20;1.90;99.90
22161;DHT22;49035;48.812;11.762;2022-11-22T06:01:45;1.90;99.90
22161;DHT22;49035;48.812;11.762;2022-11-22T06:04:11;1.80;99.90
22161;DHT22;49035;48.812;11.762;2022-11-22T06:06:40;1.80;99.90
22161;DHT22;49035;48.812;11.762;2022-11-22T06:09:05;1.80;99.90
22161;DHT22;49035;48.812;11.762;2022-11-22T06:11:31;1.70;99.90
22161;DHT22;49035;48.812;11.762;2022-11-22T06:13:59;1.70;99.90
22161;DHT22;49035;48.812;11.762;2022-11-22T06:16:25;1.70;99.90
22161;DHT22;49035;48.812;11.762;2022-11-22T06:18:52;1.70;99.90
22161;DHT22;49035;48.812;11.762;2022-11-22T06:21:23;1.60;99.90
22161;DHT22;49035;48.812;11.762;2022-11-22T06:23:50;1.60;99.90
22161;DHT22;49035;48.812;11.762;2022-11-22T06:26:17;1.60;99.90
22161;DHT22;49035;48.812;11.762;2022-11-22T06:28:44;1.80;99.90
22161;DHT22;49035;48.812;11.762;2022-11-22T06:31:13;1.60;99.90
22161;DHT22;49035;48.812;11.762;2022-11-22T06:33:40;1.50;99.90
22161;DHT22;49035;48.812;11.762;2022-11-22T06:38:37;1.20;99.90
22161;DHT22;49035;48.812;11.762;2022-11-22T06:41:05;1.10;99.90
22161;DHT22;49035;48.812;11.762;2022-11-22T06:43:31;1.00;99.90
22161;DHT22;49035;48.812;11.762;2022-11-22T06:45:58;1.00;99.90
22161;DHT22;49035;48.812;11.762;2022-11-22T06:48:28;0.90;99.90
22161;DHT22;49035;48.812;11.762;2022-11-22T06:51:05;0.90;99.90
22161;DHT22;49035;48.812;11.762;2022-11-22T06:53:32;0.80;99.90
22161;DHT22;49035;48.812;11.762;2022-11-22T06:56:02;0.80;99.90
22161;DHT22;49035;48.812;11.762;2022-11-22T06:58:29;0.90;99.90
22161;DHT22;49035;48.812;11.762;2022-11-22T07:01:02;0.90;99.90
22161;DHT22;49035;48.812;11.762;2022-11-22T07:03:28;0.80;99.90
22161;DHT22;49035;48.812;11.762;2022-11-22T07:05:54;0.90;99.90
22161;DHT22;49035;48.812;11.762;2022-11-22T07:08:20;0.90;99.90
22161;DHT22;49035;48.812;11.762;2022-11-22T07:10:46;1.00;99.90
22161;DHT22;49035;48.812;11.762;2022-11-22T07:13:12;1.10;99.90
22161;DHT22;49035;48.812;11.762;2022-11-22T07:15:37;1.20;99.90
22161;DHT22;49035;48.812;11.762;2022-11-22T07:18:03;1.40;99.90
22161;DHT22;49035;48.812;11.762;2022-11-22T07:20:29;1.60;99.90
22161;DHT22;49035;48.812;11.762;2022-11-22T07:22:54;1.80;99.90
22161;DHT22;49035;48.812;11.762;2022-11-22T07:25:20;2.10;99.90
22161;DHT22;49035;48.812;11.762;2022-11-22T07:27:45;2.20;99.90
22161;DHT22;49035;48.812;11.762;2022-11-22T07:30:11;2.30;99.90
22161;DHT22;49035;48.812;11.762;2022-11-22T07:32:37;2.40;99.90
22161;DHT22;49035;48.812;11.762;2022-11-22T07:35:03;2.50;99.90
22161;DHT22;49035;48.812;11.762;2022-11-22T07:37:32;2.40;99.90
22161;DHT22;49035;48.812;11.762;2022-11-22T07:39:58;2.50;99.90
22161;DHT22;49035;48.812;11.762;2022-11-22T07:42:23;2.60;99.90
22161;DHT22;49035;48.812;11.762;2022-11-22T07:44:49;2.60;99.90
22161;DHT22;49035;48.812;11.762;2022-11-22T07:47:14;2.80;99.90
22161;DHT22;49035;48.812;11.762;2022-11-22T07:49:40;2.90;99.90
22161;DHT22;49035;48.812;11.762;2022-11-22T07:52:06;3.00;99.90
22161;DHT22;49035;48.812;11.762;2022-11-22T07:54:31;3.10;99.90
22161;DHT22;49035;48.812;11.762;2022-11-22T07:56:57;3.20;99.90
22161;DHT22;49035;48.812;11.762;2022-11-22T07:59:22;3.20;99.90
22161;DHT22;49035;48.812;11.762;2022-11-22T08:01:49;3.40;99.90
22161;DHT22;49035;48.812;11.762;2022-11-22T08:04:15;3.60;99.90
22161;DHT22;49035;48.812;11.762;2022-11-22T08:06:40;3.80;99.90
22161;DHT22;49035;48.812;11.762;2022-11-22T08:09:06;3.90;99.90
22161;DHT22;49035;48.812;11.762;2022-11-22T08:11:31;4.00;99.90
22161;DHT22;49035;48.812;11.762;2022-11-22T08:13:57;4.20;99.90
22161;DHT22;49035;48.812;11.762;2022-11-22T08:16:23;4.40;99.90
22161;DHT22;49035;48.812;11.762;2022-11-22T08:18:49;4.60;99.90
22161;DHT22;49035;48.812;11.762;2022-11-22T08:21:16;4.80;99.90
22161;DHT22;49035;48.812;11.762;2022-11-22T08:23:42;4.80;99.90
22161;DHT22;49035;48.812;11.762;2022-11-22T08:26:11;4.90;99.90
22161;DHT22;49035;48.812;11.762;2022-11-22T08:28:38;5.00;99.90
22161;DHT22;49035;48.812;11.762;2022-11-22T08:31:06;5.10;99.90
22161;DHT22;49035;48.812;11.762;2022-11-22T08:33:33;5.00;99.90
22161;DHT22;49035;48.812;11.762;2022-11-22T08:35:58;5.00;99.90
22161;DHT22;49035;48.812;11.762;2022-11-22T08:38:24;4.90;99.90
22161;DHT22;49035;48.812;11.762;2022-11-22T08:40:50;4.70;99.90
22161;DHT22;49035;48.812;11.762;2022-11-22T08:43:16;4.60;99.90
22161;DHT22;49035;48.812;11.762;2022-11-22T08:45:41;4.80;99.90
22161;DHT22;49035;48.812;11.762;2022-11-22T08:48:07;4.80;99.90
22161;DHT22;49035;48.812;11.762;2022-11-22T08:50:33;5.00;99.90
22161;DHT22;49035;48.812;11.762;2022-11-22T08:53:00;5.10;99.90
22161;DHT22;49035;48.812;11.762;2022-11-22T08:55:26;5.20;99.90
22161;DHT22;49035;48.812;11.762;2022-11-22T08:57:51;5.20;99.90
22161;DHT22;49035;48.812;11.762;2022-11-22T09:00:17;5.10;99.90
22161;DHT22;49035;48.812;11.762;2022-11-22T09:02:43;5.10;99.90
22161;DHT22;49035;48.812;11.762;2022-11-22T09:05:09;5.00;99.90
22161;DHT22;49035;48.812;11.762;2022-11-22T09:07:34;4.90;99.90
22161;DHT22;49035;48.812;11.762;2022-11-22T09:10:00;4.80;99.90
22161;DHT22;49035;48.812;11.762;2022-11-22T09:12:25;4.80;99.90
22161;DHT22;49035;48.812;11.762;2022-11-22T09:14:51;4.90;99.90
22161;DHT22;49035;48.812;11.762;2022-11-22T09:17:17;4.70;99.90
22161;DHT22;49035;48.812;11.762;2022-11-22T09:19:42;4.70;99.90
22161;DHT22;49035;48.812;11.762;2022-11-22T09:22:08;4.70;99.90
22161;DHT22;49035;48.812;11.762;2022-11-22T09:24:34;4.60;99.90
22161;DHT22;49035;48.812;11.762;2022-11-22T09:26:59;4.60;99.90
22161;DHT22;49035;48.812;11.762;2022-11-22T09:29:25;4.70;99.90
22161;DHT22;49035;48.812;11.762;2022-11-22T09:31:51;4.80;99.90
22161;DHT22;49035;48.812;11.762;2022-11-22T09:34:17;4.90;99.90
22161;DHT22;49035;48.812;11.762;2022-11-22T09:36:42;5.10;99.90
22161;DHT22;49035;48.812;11.762;2022-11-22T09:39:08;5.10;99.90
22161;DHT22;49035;48.812;11.762;2022-11-22T09:49:42;5.50;99.90
22161;DHT22;49035;48.812;11.762;2022-11-22T09:54:58;6.00;99.90
22161;DHT22;49035;48.812;11.762;2022-11-22T09:57:37;6.40;99.90
22161;DHT22;49035;48.812;11.762;2022-11-22T10:00:14;6.70;99.90
22161;DHT22;49035;48.812;11.762;2022-11-22T10:02:44;6.90;99.90
22161;DHT22;49035;48.812;11.762;2022-11-22T10:05:16;7.00;99.90
22161;DHT22;49035;48.812;11.762;2022-11-22T10:07:48;7.20;99.90
22161;DHT22;49035;48.812;11.762;2022-11-22T10:10:23;7.30;99.90
22161;DHT22;49035;48.812;11.762;2022-11-22T10:12:57;7.40;99.90
22161;DHT22;49035;48.812;11.762;2022-11-22T10:18:44;7.60;99.90
22161;DHT22;49035;48.812;11.762;2022-11-22T10:21:11;7.60;99.90
22161;DHT22;49035;48.812;11.762;2022-11-22T10:23:39;7.70;99.90
22161;DHT22;49035;48.812;11.762;2022-11-22T10:26:28;7.60;99.90
22161;DHT22;49035;48.812;11.762;2022-11-22T10:29:24;7.40;99.90
22161;DHT22;49035;48.812;11.762;2022-11-22T10:32:21;7.60;99.90
22161;DHT22;49035;48.812;11.762;2022-11-22T10:35:02;7.90;99.90
22161;DHT22;49035;48.812;11.762;2022-11-22T10:43:14;8.20;99.90
22161;DHT22;49035;48.812;11.762;2022-11-22T10:45:46;8.00;99.90
22161;DHT22;49035;48.812;11.762;2022-11-22T10:58:56;7.90;99.90
22161;DHT22;49035;48.812;11.762;2022-11-22T11:04:04;8.00;99.90
22161;DHT22;49035;48.812;11.762;2022-11-22T11:06:56;8.20;99.90
22161;DHT22;49035;48.812;11.762;2022-11-22T11:09:37;8.30;99.90
22161;DHT22;49035;48.812;11.762;2022-11-22T11:12:13;8.50;99.90
22161;DHT22;49035;48.812;11.762;2022-11-22T11:14:44;8.70;99.90
22161;DHT22;49035;48.812;11.762;2022-11-22T11:17:17;8.80;99.90
22161;DHT22;49035;48.812;11.762;2022-11-22T11:19:44;8.90;99.90
22161;DHT22;49035;48.812;11.762;2022-11-22T11:22:18;9.00;99.90
22161;DHT22;49035;48.812;11.762;2022-11-22T11:24:46;9.00;99.90
22161;DHT22;49035;48.812;11.762;2022-11-22T11:27:12;9.10;99.90
22161;DHT22;49035;48.812;11.762;2022-11-22T11:29:42;9.10;99.90
22161;DHT22;49035;48.812;11.762;2022-11-22T11:32:19;8.80;99.90
22161;DHT22;49035;48.812;11.762;2022-11-22T11:35:12;8.80;99.90
22161;DHT22;49035;48.812;11.762;2022-11-22T11:37:38;8.90;99.90
22161;DHT22;49035;48.812;11.762;2022-11-22T11:40:05;9.10;99.90
22161;DHT22;49035;48.812;11.762;2022-11-22T11:42:32;9.10;99.90
22161;DHT22;49035;48.812;11.762;2022-11-22T11:45:34;9.20;99.90
22161;DHT22;49035;48.812;11.762;2022-11-22T11:47:59;9.30;99.90
22161;DHT22;49035;48.812;11.762;2022-11-22T11:50:27;9.40;99.90
22161;DHT22;49035;48.812;11.762;2022-11-22T11:53:05;9.40;99.90
22161;DHT22;49035;48.812;11.762;2022-11-22T11:55:39;9.50;99.90
22161;DHT22;49035;48.812;11.762;2022-11-22T11:58:18;9.30;99.90
22161;DHT22;49035;48.812;11.762;2022-11-22T12:00:45;9.30;99.90
22161;DHT22;49035;48.812;11.762;2022-11-22T12:03:14;9.20;99.90
22161;DHT22;49035;48.812;11.762;2022-11-22T12:05:41;9.20;99.90
22161;DHT22;49035;48.812;11.762;2022-11-22T12:08:29;9.10;99.90
22161;DHT22;49035;48.812;11.762;2022-11-22T12:11:00;8.80;99.90
22161;DHT22;49035;48.812;11.762;2022-11-22T12:13:39;8.70;99.90
22161;DHT22;49035;48.812;11.762;2022-11-22T12:20:10;9.30;99.90
22161;DHT22;49035;48.812;11.762;2022-11-22T12:24:59;10.00;99.90
22161;DHT22;49035;48.812;11.762;2022-11-22T12:27:27;10.00;99.90
22161;DHT22;49035;48.812;11.762;2022-11-22T12:29:52;10.20;99.90
22161;DHT22;49035;48.812;11.762;2022-11-22T12:32:32;10.40;99.90
22161;DHT22;49035;48.812;11.762;2022-11-22T12:35:09;10.40;99.90
22161;DHT22;49035;48.812;11.762;2022-11-22T12:37:40;10.30;99.90
22161;DHT22;49035;48.812;11.762;2022-11-22T12:42:52;10.00;99.90
22161;DHT22;49035;48.812;11.762;2022-11-22T12:45:26;9.80;99.90
22161;DHT22;49035;48.812;11.762;2022-11-22T12:47:53;9.80;99.90
22161;DHT22;49035;48.812;11.762;2022-11-22T12:50:45;9.70;99.90
22161;DHT22;49035;48.812;11.762;2022-11-22T12:53:26;9.70;99.90
22161;DHT22;49035;48.812;11.762;2022-11-22T12:55:55;9.50;99.90
22161;DHT22;49035;48.812;11.762;2022-11-22T13:07:00;9.70;99.90
22161;DHT22;49035;48.812;11.762;2022-11-22T13:09:36;9.70;99.90
22161;DHT22;49035;48.812;11.762;2022-11-22T13:12:11;9.60;99.90
22161;DHT22;49035;48.812;11.762;2022-11-22T13:14:43;9.50;99.90
22161;DHT22;49035;48.812;11.762;2022-11-22T13:17:10;9.40;99.90
22161;DHT22;49035;48.812;11.762;2022-11-22T13:19:45;9.30;99.90
22161;DHT22;49035;48.812;11.762;2022-11-22T13:25:27;9.20;99.90
22161;DHT22;49035;48.812;11.762;2022-11-22T13:27:55;9.00;99.90
22161;DHT22;49035;48.812;11.762;2022-11-22T13:30:26;8.90;99.90
22161;DHT22;49035;48.812;11.762;2022-11-22T13:32:54;8.80;99.90
22161;DHT22;49035;48.812;11.762;2022-11-22T13:35:29;8.80;99.90
22161;DHT22;49035;48.812;11.762;2022-11-22T13:40:51;8.70;99.90
22161;DHT22;49035;48.812;11.762;2022-11-22T13:45:53;8.50;99.90
22161;DHT22;49035;48.812;11.762;2022-11-22T13:51:08;8.40;99.90
22161;DHT22;49035;48.812;11.762;2022-11-22T13:53:37;8.30;99.90
22161;DHT22;49035;48.812;11.762;2022-11-22T14:09:43;8.00;99.90
22161;DHT22;49035;48.812;11.762;2022-11-22T14:22:56;7.60;99.90
22161;DHT22;49035;48.812;11.762;2022-11-22T14:25:40;7.60;99.90
22161;DHT22;49035;48.812;11.762;2022-11-22T14:30:56;7.50;99.90
22161;DHT22;49035;48.812;11.762;2022-11-22T14:33:26;7.50;99.90
22161;DHT22;49035;48.812;11.762;2022-11-22T14:38:44;7.30;99.90
22161;DHT22;49035;48.812;11.762;2022-11-22T14:41:42;7.30;99.90
22161;DHT22;49035;48.812;11.762;2022-11-22T14:44:27;7.20;99.90
22161;DHT22;49035;48.812;11.762;2022-11-22T14:47:09;7.10;99.90
22161;DHT22;49035;48.812;11.762;2022-11-22T14:49:47;7.00;99.90
22161;DHT22;49035;48.812;11.762;2022-11-22T14:52:25;6.90;99.90
22161;DHT22;49035;48.812;11.762;2022-11-22T14:55:00;6.80;99.90
22161;DHT22;49035;48.812;11.762;2022-11-22T14:57:28;6.70;99.90
22161;DHT22;49035;48.812;11.762;2022-11-22T15:00:17;6.60;99.90
22161;DHT22;49035;48.812;11.762;2022-11-22T15:17:04;6.00;99.90
22161;DHT22;49035;48.812;11.762;2022-11-22T15:19:35;5.90;99.90
22161;DHT22;49035;48.812;11.762;2022-11-22T15:22:13;5.80;99.90
22161;DHT22;49035;48.812;11.762;2022-11-22T15:24:54;5.80;99.90
22161;DHT22;49035;48.812;11.762;2022-11-22T15:32:39;5.60;99.90
22161;DHT22;49035;48.812;11.762;2022-11-22T15:35:15;5.50;99.90
22161;DHT22;49035;48.812;11.762;2022-11-22T15:40:32;5.40;99.90
22161;DHT22;49035;48.812;11.762;2022-11-22T15:42:59;5.40;99.90
22161;DHT22;49035;48.812;11.762;2022-11-22T15:45:27;5.30;99.90
22161;DHT22;49035;48.812;11.762;2022-11-22T15:47:57;5.20;99.90
22161;DHT22;49035;48.812;11.762;2022-11-22T15:50:23;5.20;99.90
22161;DHT22;49035;48.812;11.762;2022-11-22T15:52:52;5.20;99.90
22161;DHT22;49035;48.812;11.762;2022-11-22T15:55:21;5.20;99.90
22161;DHT22;49035;48.812;11.762;2022-11-22T15:57:53;5.20;99.90
22161;DHT22;49035;48.812;11.762;2022-11-22T16:00:23;5.20;99.90
22161;DHT22;49035;48.812;11.762;2022-11-22T16:02:54;5.30;99.90
22161;DHT22;49035;48.812;11.762;2022-11-22T16:05:32;5.30;99.90
22161;DHT22;49035;48.812;11.762;2022-11-22T16:08:02;5.20;99.90
22161;DHT22;49035;48.812;11.762;2022-11-22T16:10:36;5.30;99.90
22161;DHT22;49035;48.812;11.762;2022-11-22T16:15:36;5.40;99.90
22161;DHT22;49035;48.812;11.762;2022-11-22T16:18:21;5.50;99.90
22161;DHT22;49035;48.812;11.762;2022-11-22T16:21:03;5.50;99.90
22161;DHT22;49035;48.812;11.762;2022-11-22T16:23:30;5.50;99.90
22161;DHT22;49035;48.812;11.762;2022-11-22T16:26:18;5.50;99.90
22161;DHT22;49035;48.812;11.762;2022-11-22T16:28:46;5.50;99.90
22161;DHT22;49035;48.812;11.762;2022-11-22T16:31:22;5.50;99.90
22161;DHT22;49035;48.812;11.762;2022-11-22T16:33:48;5.60;99.90
22161;DHT22;49035;48.812;11.762;2022-11-22T16:36:16;5.60;99.90
22161;DHT22;49035;48.812;11.762;2022-11-22T16:38:42;5.50;99.90
22161;DHT22;49035;48.812;11.762;2022-11-22T16:41:23;5.50;99.90
22161;DHT22;49035;48.812;11.762;2022-11-22T16:43:52;5.70;99.90
22161;DHT22;49035;48.812;11.762;2022-11-22T16:46:19;5.70;99.90
22161;DHT22;49035;48.812;11.762;2022-11-22T16:48:44;5.60;99.90
22161;DHT22;49035;48.812;11.762;2022-11-22T16:51:35;5.50;99.90
22161;DHT22;49035;48.812;11.762;2022-11-22T16:54:05;5.50;99.90
22161;DHT22;49035;48.812;11.762;2022-11-22T16:56:32;5.50;99.90
22161;DHT22;49035;48.812;11.762;2022-11-22T16:58:58;5.60;99.90
22161;DHT22;49035;48.812;11.762;2022-11-22T17:01:26;5.60;99.90
22161;DHT22;49035;48.812;11.762;2022-11-22T17:03:56;5.50;99.90
22161;DHT22;49035;48.812;11.762;2022-11-22T17:06:24;5.40;99.90
22161;DHT22;49035;48.812;11.762;2022-11-22T17:08:51;5.30;99.90
22161;DHT22;49035;48.812;11.762;2022-11-22T17:11:20;5.30;99.90
22161;DHT22;49035;48.812;11.762;2022-11-22T17:13:47;5.30;99.90
22161;DHT22;49035;48.812;11.762;2022-11-22T17:16:13;5.40;99.90
22161;DHT22;49035;48.812;11.762;2022-11-22T17:18:40;5.20;99.90
22161;DHT22;49035;48.812;11.762;2022-11-22T17:23:42;5.00;99.90
22161;DHT22;49035;48.812;11.762;2022-11-22T17:26:09;5.00;99.90
22161;DHT22;49035;48.812;11.762;2022-11-22T17:28:35;5.00;99.90
22161;DHT22;49035;48.812;11.762;2022-11-22T17:31:01;4.90;99.90
22161;DHT22;49035;48.812;11.762;2022-11-22T17:33:27;4.90;99.90
22161;DHT22;49035;48.812;11.762;2022-11-22T17:35:53;4.70;99.90
22161;DHT22;49035;48.812;11.762;2022-11-22T17:38:20;4.70;99.90
22161;DHT22;49035;48.812;11.762;2022-11-22T17:40:45;4.60;99.90
22161;DHT22;49035;48.812;11.762;2022-11-22T17:43:12;4.70;99.90
22161;DHT22;49035;48.812;11.762;2022-11-22T17:45:41;4.60;99.90
22161;DHT22;49035;48.812;11.762;2022-11-22T17:48:09;4.40;99.90